Time;durP1;ratioP1;P1;durP2;ratioP2;P2;SDS_P1;SDS_P2;PMS_P1;PMS_P2;Temp;Humidity;BMP_temperature;BMP_pressure;BME280_temperature;BME280_humidity;BME280_pressure;Samples;Min_cycle;Max_cycle;Signal;HPM_P1;HPM_P2
2021/01/15 00:02:11;;;;;;;;;;;3.80;97.60;;;;;;4421848;32;20037;-33
2021/01/15 00:04:37;;;;;;;;;;;3.80;97.60;;;;;;4420504;32;20401;-33
2021/01/15 00:07:07;;;;;;;;;;;3.80;97.70;;;;;;4421744;32;20008;-33
2021/01/15 00:09:33;;;;;;;;;;;3.80;97.70;;;;;;4420386;32;20046;-33
2021/01/15 00:12:00;;;;;;;;;;;3.80;97.70;;;;;;4421552;32;20460;-33
2021/01/15 00:14:27;;;;;;;;;;;3.80;97.70;;;;;;4421481;32;19995;-33
2021/01/15 00:16:54;;;;;;;;;;;3.80;97.60;;;;;;4421694;32;20016;-33
2021/01/15 00:19:23;;;;;;;;;;;3.80;97.70;;;;;;4421678;32;20046;-34
2021/01/15 00:21:50;;;;;;;;;;;3.80;97.70;;;;;;4421695;32;19999;-33
2021/01/15 00:24:18;;;;;;;;;;;3.80;97.60;;;;;;4421381;32;20037;-33
2021/01/15 00:26:45;;;;;;;;;;;3.80;97.70;;;;;;4420484;32;20051;-33
2021/01/15 00:29:14;;;;;;;;;;;3.80;97.70;;;;;;4420479;32;20347;-33
2021/01/15 00:31:42;;;;;;;;;;;3.80;97.70;;;;;;4420493;32;20022;-33
2021/01/15 00:34:10;;;;;;;;;;;3.80;97.70;;;;;;4420418;32;20003;-33
2021/01/15 00:36:38;;;;;;;;;;;3.80;97.70;;;;;;4421782;32;20011;-33
2021/01/15 00:39:05;;;;;;;;;;;3.80;97.80;;;;;;4421295;32;20422;-33
2021/01/15 00:41:33;;;;;;;;;;;3.80;97.80;;;;;;4421184;32;20000;-33
2021/01/15 00:44:00;;;;;;;;;;;3.80;97.80;;;;;;4421426;32;20034;-33
2021/01/15 00:46:32;;;;;;;;;;;3.80;97.80;;;;;;4420216;32;20006;-33
2021/01/15 00:49:04;;;;;;;;;;;3.80;97.70;;;;;;4421386;32;20014;-33
2021/01/15 00:51:34;;;;;;;;;;;3.80;97.70;;;;;;4407468;32;20006;-33
2021/01/15 00:54:02;;;;;;;;;;;3.80;97.70;;;;;;4421467;32;20006;-33
2021/01/15 00:56:29;;;;;;;;;;;3.80;97.70;;;;;;4420395;32;20015;-33
2021/01/15 00:58:56;;;;;;;;;;;3.80;97.80;;;;;;4420724;32;20011;-33
2021/01/15 01:01:23;;;;;;;;;;;3.80;97.70;;;;;;4424305;32;20007;-33
2021/01/15 01:03:51;;;;;;;;;;;3.80;97.80;;;;;;4423986;32;20008;-33
2021/01/15 01:06:19;;;;;;;;;;;3.80;97.80;;;;;;4422765;32;20007;-33
2021/01/15 01:08:49;;;;;;;;;;;3.80;97.80;;;;;;4424355;32;20007;-33
2021/01/15 01:11:20;;;;;;;;;;;3.80;97.80;;;;;;4410671;32;20056;-33
2021/01/15 01:13:48;;;;;;;;;;;3.80;97.80;;;;;;4423872;32;20011;-34
2021/01/15 01:16:17;;;;;;;;;;;3.80;97.80;;;;;;4424186;32;20359;-33
2021/01/15 01:18:45;;;;;;;;;;;3.80;97.80;;;;;;4410040;32;20461;-33
2021/01/15 01:21:12;;;;;;;;;;;3.80;97.80;;;;;;4423727;32;20004;-33
2021/01/15 01:23:39;;;;;;;;;;;3.70;97.80;;;;;;4424144;32;20436;-33
2021/01/15 01:26:06;;;;;;;;;;;3.80;97.90;;;;;;4423915;32;20503;-33
2021/01/15 01:28:33;;;;;;;;;;;3.80;97.90;;;;;;4422502;32;20414;-33
2021/01/15 01:31:00;;;;;;;;;;;3.80;97.90;;;;;;4423525;32;20007;-33
2021/01/15 01:33:27;;;;;;;;;;;3.80;97.90;;;;;;4423864;32;20007;-33
2021/01/15 01:35:53;;;;;;;;;;;3.80;97.90;;;;;;4423853;32;20017;-33
2021/01/15 01:38:21;;;;;;;;;;;3.80;97.90;;;;;;4422575;32;20004;-33
2021/01/15 01:40:47;;;;;;;;;;;3.80;97.90;;;;;;4423841;32;20063;-33
2021/01/15 01:43:14;;;;;;;;;;;3.70;97.90;;;;;;4423251;32;20442;-33
2021/01/15 01:45:41;;;;;;;;;;;3.80;97.90;;;;;;4422375;32;20007;-33
2021/01/15 01:48:08;;;;;;;;;;;3.80;98.00;;;;;;4423586;32;20055;-33
2021/01/15 01:50:35;;;;;;;;;;;3.80;98.00;;;;;;4423444;32;20004;-39
2021/01/15 01:53:04;;;;;;;;;;;3.80;98.00;;;;;;4422072;32;20014;-33
2021/01/15 01:55:32;;;;;;;;;;;3.80;98.00;;;;;;4422264;32;20012;-34
2021/01/15 01:58:01;;;;;;;;;;;3.80;97.90;;;;;;4423582;32;20010;-33
2021/01/15 02:00:32;;;;;;;;;;;3.80;98.00;;;;;;4423787;32;20007;-33
2021/01/15 02:03:02;;;;;;;;;;;3.70;97.90;;;;;;4409816;32;19992;-33
2021/01/15 02:05:29;;;;;;;;;;;3.80;98.00;;;;;;4423307;32;20008;-33
2021/01/15 02:07:56;;;;;;;;;;;3.80;98.00;;;;;;4423006;32;20066;-33
2021/01/15 02:10:39;;;;;;;;;;;3.80;98.00;;;;;;4423252;32;20018;-33
2021/01/15 02:13:12;;;;;;;;;;;3.70;98.00;;;;;;4422011;32;20074;-33
2021/01/15 02:15:51;;;;;;;;;;;3.70;98.00;;;;;;4421944;32;20007;-33
2021/01/15 02:18:33;;;;;;;;;;;3.80;98.10;;;;;;4409537;32;20018;-33
2021/01/15 02:21:18;;;;;;;;;;;3.80;98.10;;;;;;4423269;32;20000;-33
2021/01/15 02:23:46;;;;;;;;;;;3.80;98.10;;;;;;4422822;32;20054;-33
2021/01/15 02:26:19;;;;;;;;;;;3.80;98.10;;;;;;4422930;32;19991;-33
2021/01/15 02:29:04;;;;;;;;;;;3.80;98.10;;;;;;4422733;32;20070;-33
2021/01/15 02:31:49;;;;;;;;;;;3.70;98.10;;;;;;4421539;32;20022;-33
2021/01/15 02:34:27;;;;;;;;;;;3.70;98.10;;;;;;4422711;32;20078;-33
2021/01/15 02:37:03;;;;;;;;;;;3.70;98.10;;;;;;4422008;32;20370;-33
2021/01/15 02:39:51;;;;;;;;;;;3.70;98.10;;;;;;4409334;32;20007;-33
2021/01/15 02:42:20;;;;;;;;;;;3.70;98.10;;;;;;4405982;32;20011;-33
2021/01/15 02:44:48;;;;;;;;;;;3.70;98.10;;;;;;4421373;32;20084;-33
2021/01/15 02:47:18;;;;;;;;;;;3.70;98.10;;;;;;4421493;32;20018;-33
2021/01/15 02:49:46;;;;;;;;;;;3.70;98.10;;;;;;4422675;32;20003;-33
2021/01/15 02:52:14;;;;;;;;;;;3.70;98.10;;;;;;4422686;32;20017;-33
2021/01/15 02:54:41;;;;;;;;;;;3.70;98.10;;;;;;4422292;32;20317;-33
2021/01/15 02:57:08;;;;;;;;;;;3.80;98.10;;;;;;4422012;32;20011;-33
2021/01/15 02:59:34;;;;;;;;;;;3.70;98.10;;;;;;4422698;32;20014;-33
2021/01/15 03:02:07;;;;;;;;;;;3.70;98.40;;;;;;4422440;32;20367;-33
2021/01/15 03:04:55;;;;;;;;;;;3.70;98.10;;;;;;4408871;32;19999;-33
2021/01/15 03:07:23;;;;;;;;;;;3.70;98.10;;;;;;4419402;32;20010;-33
2021/01/15 03:09:52;;;;;;;;;;;3.70;98.50;;;;;;4422297;32;19992;-33
2021/01/15 03:12:19;;;;;;;;;;;3.70;98.20;;;;;;4421976;32;20013;-33
2021/01/15 03:14:46;;;;;;;;;;;3.70;98.20;;;;;;4421099;32;20065;-33
2021/01/15 03:17:14;;;;;;;;;;;3.70;98.20;;;;;;4422136;32;20013;-33
2021/01/15 03:19:41;;;;;;;;;;;3.70;98.10;;;;;;4421208;32;20088;-33
2021/01/15 03:22:15;;;;;;;;;;;3.70;98.10;;;;;;4422096;32;20004;-33
2021/01/15 03:24:54;;;;;;;;;;;3.70;98.10;;;;;;4422377;32;20398;-33
2021/01/15 03:27:21;;;;;;;;;;;3.70;98.10;;;;;;4421153;32;20435;-33
2021/01/15 03:29:49;;;;;;;;;;;3.70;98.20;;;;;;4422172;32;20011;-33
2021/01/15 03:32:16;;;;;;;;;;;3.70;98.20;;;;;;4421632;32;20085;-33
2021/01/15 03:34:43;;;;;;;;;;;3.70;98.20;;;;;;4422096;32;20008;-33
2021/01/15 03:37:09;;;;;;;;;;;3.70;98.10;;;;;;4421874;32;20018;-33
2021/01/15 03:39:38;;;;;;;;;;;3.70;98.20;;;;;;4420822;32;20085;-33
2021/01/15 03:42:05;;;;;;;;;;;3.70;98.10;;;;;;4422123;32;20008;-33
2021/01/15 03:44:33;;;;;;;;;;;3.70;98.20;;;;;;4421852;32;20039;-33
2021/01/15 03:47:00;;;;;;;;;;;3.70;98.20;;;;;;4420421;32;20041;-33
2021/01/15 03:49:27;;;;;;;;;;;3.70;98.20;;;;;;4420525;32;20054;-33
2021/01/15 03:51:54;;;;;;;;;;;3.70;98.20;;;;;;4421730;32;20051;-33
2021/01/15 03:54:23;;;;;;;;;;;3.70;98.20;;;;;;4421411;32;20011;-33
2021/01/15 03:56:51;;;;;;;;;;;3.70;98.20;;;;;;4421767;32;20007;-33
2021/01/15 03:59:18;;;;;;;;;;;3.70;98.20;;;;;;4421921;32;20007;-33
2021/01/15 04:01:45;;;;;;;;;;;3.70;98.30;;;;;;4408140;32;20036;-33
2021/01/15 04:04:12;;;;;;;;;;;3.70;98.30;;;;;;4421470;32;20310;-33
2021/01/15 04:06:41;;;;;;;;;;;3.60;98.30;;;;;;4421671;32;19999;-33
2021/01/15 04:09:08;;;;;;;;;;;3.70;98.30;;;;;;4421765;32;20038;-33
2021/01/15 04:11:35;;;;;;;;;;;3.70;98.30;;;;;;4421641;32;20003;-34
2021/01/15 04:14:02;;;;;;;;;;;3.70;98.30;;;;;;4420534;32;20461;-33
2021/01/15 04:16:28;;;;;;;;;;;3.70;98.30;;;;;;4421324;32;20012;-33
2021/01/15 04:18:55;;;;;;;;;;;3.70;98.30;;;;;;4421173;32;20017;-33
2021/01/15 04:21:23;;;;;;;;;;;3.60;98.30;;;;;;4420413;32;19999;-33
2021/01/15 04:23:49;;;;;;;;;;;3.70;98.30;;;;;;4421534;32;20018;-33
2021/01/15 04:26:20;;;;;;;;;;;3.60;98.30;;;;;;4421545;32;20072;-33
2021/01/15 04:28:49;;;;;;;;;;;3.70;98.40;;;;;;4420608;32;20063;-33
2021/01/15 04:31:19;;;;;;;;;;;3.70;98.40;;;;;;4408128;32;20031;-33
2021/01/15 04:33:47;;;;;;;;;;;3.60;98.40;;;;;;4421977;32;20071;-33
2021/01/15 04:36:14;;;;;;;;;;;3.60;98.30;;;;;;4423531;32;20007;-33
2021/01/15 04:38:44;;;;;;;;;;;3.60;98.30;;;;;;4424648;32;20008;-33
2021/01/15 04:41:10;;;;;;;;;;;3.70;98.40;;;;;;4424878;32;20011;-33
2021/01/15 04:43:39;;;;;;;;;;;3.60;98.40;;;;;;4423112;32;20459;-33
2021/01/15 04:46:06;;;;;;;;;;;3.60;98.40;;;;;;4424395;32;20042;-33
2021/01/15 04:48:38;;;;;;;;;;;3.60;98.40;;;;;;4424524;32;20367;-33
2021/01/15 04:51:09;;;;;;;;;;;3.60;98.40;;;;;;4424292;32;20014;-33
2021/01/15 04:53:38;;;;;;;;;;;3.60;98.40;;;;;;4424380;32;20003;-33
2021/01/15 04:56:11;;;;;;;;;;;3.60;98.40;;;;;;4424517;32;20018;-33
2021/01/15 04:58:44;;;;;;;;;;;3.60;98.40;;;;;;4424185;32;19999;-33
2021/01/15 05:01:11;;;;;;;;;;;3.60;98.40;;;;;;4423257;32;20015;-33
2021/01/15 05:03:39;;;;;;;;;;;3.60;98.70;;;;;;4423157;32;20450;-33
2021/01/15 05:06:10;;;;;;;;;;;3.60;98.40;;;;;;4424314;32;20014;-33
2021/01/15 05:08:38;;;;;;;;;;;3.60;98.40;;;;;;4424421;32;20100;-33
2021/01/15 05:11:07;;;;;;;;;;;3.60;98.50;;;;;;4410116;32;20027;-33
2021/01/15 05:13:38;;;;;;;;;;;3.60;98.40;;;;;;4423633;32;20012;-33
2021/01/15 05:16:07;;;;;;;;;;;3.60;98.50;;;;;;4423257;32;20396;-33
2021/01/15 05:18:38;;;;;;;;;;;3.60;98.50;;;;;;4410314;32;20054;-33
2021/01/15 05:21:05;;;;;;;;;;;3.60;98.50;;;;;;4423742;32;19999;-33
2021/01/15 05:23:35;;;;;;;;;;;3.60;98.50;;;;;;4422598;32;20007;-33
2021/01/15 05:26:01;;;;;;;;;;;3.60;98.50;;;;;;4423742;32;20325;-33
2021/01/15 05:28:28;;;;;;;;;;;3.60;98.50;;;;;;4423601;32;20003;-33
2021/01/15 05:30:56;;;;;;;;;;;3.60;98.50;;;;;;4422672;32;20042;-34
2021/01/15 05:33:25;;;;;;;;;;;3.60;98.50;;;;;;4422894;32;20014;-33
2021/01/15 05:35:55;;;;;;;;;;;3.60;98.40;;;;;;4423595;32;20009;-33
2021/01/15 05:38:22;;;;;;;;;;;3.60;98.40;;;;;;4423963;32;20460;-33
2021/01/15 05:40:52;;;;;;;;;;;3.60;98.50;;;;;;4423515;32;20420;-33
2021/01/15 05:43:18;;;;;;;;;;;3.60;98.50;;;;;;4423798;32;20004;-33
2021/01/15 05:46:03;;;;;;;;;;;3.60;98.50;;;;;;4423360;32;20003;-33
2021/01/15 05:48:30;;;;;;;;;;;3.60;98.50;;;;;;4423211;32;20000;-33
2021/01/15 05:50:57;;;;;;;;;;;3.60;98.50;;;;;;4423678;32;20451;-33
2021/01/15 05:53:24;;;;;;;;;;;3.60;98.50;;;;;;4423429;32;20014;-33
2021/01/15 05:55:58;;;;;;;;;;;3.60;98.50;;;;;;4422314;32;20003;-33
2021/01/15 05:58:25;;;;;;;;;;;3.60;98.50;;;;;;4422001;32;20014;-33
2021/01/15 06:00:52;;;;;;;;;;;3.60;98.50;;;;;;4423368;32;20004;-33
2021/01/15 06:03:22;;;;;;;;;;;3.60;98.60;;;;;;4423487;32;20014;-33
2021/01/15 06:05:50;;;;;;;;;;;3.60;98.50;;;;;;4422095;32;20016;-33
2021/01/15 06:08:17;;;;;;;;;;;3.60;98.50;;;;;;4422106;32;20015;-33
2021/01/15 06:10:47;;;;;;;;;;;3.60;98.60;;;;;;4423240;32;20017;-33
2021/01/15 06:13:34;;;;;;;;;;;3.60;98.60;;;;;;4422950;32;20408;-33
2021/01/15 06:16:01;;;;;;;;;;;3.60;98.50;;;;;;4423507;32;20000;-33
2021/01/15 06:18:27;;;;;;;;;;;3.60;98.50;;;;;;4423318;32;20066;-33
2021/01/15 06:21:05;;;;;;;;;;;3.60;98.50;;;;;;4423178;32;20003;-33
2021/01/15 06:23:38;;;;;;;;;;;3.60;98.50;;;;;;4423300;32;20047;-33
2021/01/15 06:26:06;;;;;;;;;;;3.60;98.60;;;;;;4421855;32;20021;-33
2021/01/15 06:28:33;;;;;;;;;;;3.60;98.90;;;;;;4422842;32;20003;-33
2021/01/15 06:31:03;;;;;;;;;;;3.60;98.60;;;;;;4421862;32;19999;-33
2021/01/15 06:33:33;;;;;;;;;;;3.60;98.50;;;;;;4423140;32;20008;-33
2021/01/15 06:36:00;;;;;;;;;;;3.60;98.50;;;;;;4423041;32;20007;-33
2021/01/15 06:38:28;;;;;;;;;;;3.60;98.50;;;;;;4422668;32;20037;-33
2021/01/15 06:40:55;;;;;;;;;;;3.60;98.50;;;;;;4421734;32;20011;-33
2021/01/15 06:43:30;;;;;;;;;;;3.60;98.50;;;;;;4422906;32;20004;-33
2021/01/15 06:45:59;;;;;;;;;;;3.60;98.50;;;;;;4421910;32;20025;-33
2021/01/15 06:48:33;;;;;;;;;;;3.60;98.50;;;;;;4421803;32;20004;-33
2021/01/15 06:51:01;;;;;;;;;;;3.60;98.50;;;;;;4422664;32;20067;-33
2021/01/15 06:53:29;;;;;;;;;;;3.60;98.50;;;;;;4421455;32;20012;-33
2021/01/15 06:55:57;;;;;;;;;;;3.60;98.50;;;;;;4421262;32;20386;-33
2021/01/15 06:58:28;;;;;;;;;;;3.60;98.50;;;;;;4408671;32;20446;-33
2021/01/15 07:01:14;;;;;;;;;;;3.60;98.50;;;;;;4422326;32;20003;-33
2021/01/15 07:03:50;;;;;;;;;;;3.60;98.60;;;;;;4422820;32;20021;-33
2021/01/15 07:06:27;;;;;;;;;;;3.60;98.60;;;;;;4421426;32;20000;-33
2021/01/15 07:08:55;;;;;;;;;;;3.60;98.60;;;;;;4422354;32;20008;-33
2021/01/15 07:11:23;;;;;;;;;;;3.60;98.60;;;;;;4422386;32;20008;-33
2021/01/15 07:13:52;;;;;;;;;;;3.60;98.60;;;;;;4420775;32;20412;-33
2021/01/15 07:16:28;;;;;;;;;;;3.60;98.60;;;;;;4421355;32;20015;-33
2021/01/15 07:19:05;;;;;;;;;;;3.60;98.60;;;;;;4422017;32;19992;-33
2021/01/15 07:21:33;;;;;;;;;;;3.60;98.50;;;;;;4422332;32;20014;-33
2021/01/15 07:24:10;;;;;;;;;;;3.60;98.60;;;;;;4420978;32;19999;-33
2021/01/15 07:26:40;;;;;;;;;;;3.50;98.50;;;;;;4421612;32;20052;-33
2021/01/15 07:29:10;;;;;;;;;;;3.60;98.60;;;;;;4421335;32;20015;-33
2021/01/15 07:31:38;;;;;;;;;;;3.60;98.60;;;;;;4422190;32;20022;-33
2021/01/15 07:34:13;;;;;;;;;;;3.60;98.50;;;;;;4422163;32;20474;-33
2021/01/15 07:36:40;;;;;;;;;;;3.60;98.60;;;;;;4420892;32;20022;-33
2021/01/15 07:39:11;;;;;;;;;;;3.60;98.90;;;;;;4420573;32;20434;-33
2021/01/15 07:41:52;;;;;;;;;;;3.50;98.50;;;;;;4421745;32;20033;-33
2021/01/15 07:44:22;;;;;;;;;;;3.60;98.60;;;;;;4422157;32;20004;-33
2021/01/15 07:46:49;;;;;;;;;;;3.50;98.60;;;;;;4421468;32;20018;-33
2021/01/15 07:49:16;;;;;;;;;;;3.50;98.60;;;;;;4398549;32;20055;-33
2021/01/15 07:51:43;;;;;;;;;;;3.60;98.60;;;;;;4406204;32;19999;-33
2021/01/15 07:54:09;;;;;;;;;;;3.60;98.60;;;;;;4406388;32;20000;-33
2021/01/15 07:56:36;;;;;;;;;;;3.50;98.60;;;;;;4406352;32;20397;-33
2021/01/15 07:59:03;;;;;;;;;;;3.50;98.60;;;;;;4406818;32;20010;-33
2021/01/15 08:01:30;;;;;;;;;;;3.50;98.60;;;;;;4406666;32;20393;-33
2021/01/15 08:03:57;;;;;;;;;;;3.60;98.60;;;;;;4406382;32;20060;-33
2021/01/15 08:06:30;;;;;;;;;;;3.50;98.60;;;;;;4406903;32;20010;-33
2021/01/15 08:09:00;;;;;;;;;;;3.50;98.60;;;;;;4406335;32;20016;-33
2021/01/15 08:11:31;;;;;;;;;;;3.60;98.60;;;;;;4405895;32;20008;-33
2021/01/15 08:14:12;;;;;;;;;;;3.50;98.60;;;;;;4405094;32;20066;-33
2021/01/15 08:16:46;;;;;;;;;;;3.50;98.60;;;;;;4417621;32;20004;-33
2021/01/15 08:19:14;;;;;;;;;;;3.50;98.60;;;;;;4392928;32;20447;-33
2021/01/15 08:21:44;;;;;;;;;;;3.50;98.60;;;;;;4405544;32;20096;-33
2021/01/15 08:24:13;;;;;;;;;;;3.50;98.60;;;;;;4405306;32;20016;-33
2021/01/15 08:26:40;;;;;;;;;;;3.50;98.60;;;;;;4405405;32;20018;-33
2021/01/15 08:29:15;;;;;;;;;;;3.50;98.60;;;;;;4406156;32;20008;-33
2021/01/15 08:31:46;;;;;;;;;;;3.50;98.60;;;;;;4405274;32;20016;-33
2021/01/15 08:34:17;;;;;;;;;;;3.50;98.60;;;;;;4392602;32;20043;-33
2021/01/15 08:36:48;;;;;;;;;;;3.50;98.60;;;;;;4405395;32;20007;-33
2021/01/15 08:39:17;;;;;;;;;;;3.50;98.60;;;;;;4405266;32;20010;-33
2021/01/15 08:41:54;;;;;;;;;;;3.50;98.60;;;;;;4406411;32;20000;-33
2021/01/15 08:44:23;;;;;;;;;;;3.50;98.60;;;;;;4406023;32;20015;-33
2021/01/15 08:46:50;;;;;;;;;;;3.50;98.70;;;;;;4406391;32;20463;-33
2021/01/15 08:49:17;;;;;;;;;;;3.50;98.70;;;;;;4406317;32;20055;-33
2021/01/15 08:51:50;;;;;;;;;;;3.50;98.70;;;;;;4406364;32;20032;-33
2021/01/15 08:54:20;;;;;;;;;;;3.50;98.70;;;;;;4405269;32;20022;-33
2021/01/15 08:56:48;;;;;;;;;;;3.50;98.70;;;;;;4405774;32;20011;-33
2021/01/15 08:59:25;;;;;;;;;;;3.60;98.70;;;;;;4406198;32;19996;-33
2021/01/15 09:01:53;;;;;;;;;;;3.50;98.70;;;;;;4406199;32;20025;-33
2021/01/15 09:04:25;;;;;;;;;;;3.50;98.70;;;;;;4405928;32;20423;-33
2021/01/15 09:06:55;;;;;;;;;;;3.50;98.70;;;;;;4392503;32;20012;-33
2021/01/15 09:09:23;;;;;;;;;;;3.50;98.70;;;;;;4405924;32;20067;-33
2021/01/15 09:11:51;;;;;;;;;;;3.50;98.70;;;;;;4404974;32;20431;-33
2021/01/15 09:14:33;;;;;;;;;;;3.50;98.70;;;;;;4404862;32;20400;-33
2021/01/15 09:17:00;;;;;;;;;;;3.50;98.70;;;;;;4406063;32;20016;-33
2021/01/15 09:19:30;;;;;;;;;;;3.50;98.70;;;;;;4405864;32;20063;-33
2021/01/15 09:22:01;;;;;;;;;;;3.50;98.70;;;;;;4407191;32;20322;-33
2021/01/15 09:24:29;;;;;;;;;;;3.50;98.70;;;;;;4407575;32;20023;-33
2021/01/15 09:27:05;;;;;;;;;;;3.50;98.70;;;;;;4407850;32;20075;-33
2021/01/15 09:29:33;;;;;;;;;;;3.50;98.70;;;;;;4408837;32;20386;-33
2021/01/15 09:32:01;;;;;;;;;;;3.50;98.70;;;;;;4407647;32;20008;-33
2021/01/15 09:34:28;;;;;;;;;;;3.50;98.70;;;;;;4394354;32;20119;-33
2021/01/15 09:36:55;;;;;;;;;;;3.50;98.70;;;;;;4415591;32;19999;-33
2021/01/15 09:39:23;;;;;;;;;;;3.50;98.70;;;;;;4423392;32;20003;-33
2021/01/15 09:41:54;;;;;;;;;;;3.50;98.70;;;;;;4421962;32;20015;-34
2021/01/15 09:44:22;;;;;;;;;;;3.50;98.70;;;;;;4409145;32;20047;-33
2021/01/15 09:46:50;;;;;;;;;;;3.50;98.70;;;;;;4421858;32;20003;-33
2021/01/15 09:49:21;;;;;;;;;;;3.50;98.70;;;;;;4422216;32;19995;-33
2021/01/15 09:51:50;;;;;;;;;;;3.50;98.70;;;;;;4422877;32;20065;-33
2021/01/15 09:54:17;;;;;;;;;;;3.50;98.70;;;;;;4409490;32;20007;-35
2021/01/15 09:56:44;;;;;;;;;;;3.50;98.70;;;;;;4421851;32;20313;-33
2021/01/15 09:59:12;;;;;;;;;;;3.50;98.70;;;;;;4423083;32;20007;-33
2021/01/15 10:01:39;;;;;;;;;;;3.50;98.70;;;;;;4421726;32;20077;-33
2021/01/15 10:04:06;;;;;;;;;;;3.50;98.70;;;;;;4423010;32;20008;-34
2021/01/15 10:06:39;;;;;;;;;;;3.50;98.70;;;;;;4423039;32;20007;-33
2021/01/15 10:09:07;;;;;;;;;;;3.50;98.70;;;;;;4421995;32;20440;-33
2021/01/15 10:11:38;;;;;;;;;;;3.50;98.70;;;;;;4421558;32;20011;-33
2021/01/15 10:14:09;;;;;;;;;;;3.50;98.70;;;;;;4421580;32;20029;-35
2021/01/15 10:16:37;;;;;;;;;;;3.50;98.70;;;;;;4409220;32;20006;-33
2021/01/15 10:19:04;;;;;;;;;;;3.50;98.70;;;;;;4423230;32;20003;-33
2021/01/15 10:21:32;;;;;;;;;;;3.50;98.70;;;;;;4422899;32;20022;-33
2021/01/15 10:23:59;;;;;;;;;;;3.50;98.70;;;;;;4422845;32;20047;-33
2021/01/15 10:26:28;;;;;;;;;;;3.50;98.70;;;;;;4422718;32;20028;-33
2021/01/15 10:28:59;;;;;;;;;;;3.50;98.70;;;;;;4422748;32;20000;-34
2021/01/15 10:31:27;;;;;;;;;;;3.50;98.70;;;;;;4422023;32;20426;-34
2021/01/15 10:33:54;;;;;;;;;;;3.50;98.70;;;;;;4422823;32;20394;-34
2021/01/15 10:36:21;;;;;;;;;;;3.50;98.70;;;;;;4421006;32;20011;-34
2021/01/15 10:38:48;;;;;;;;;;;3.50;98.70;;;;;;4422232;32;20081;-34
2021/01/15 10:41:16;;;;;;;;;;;3.50;98.70;;;;;;4422606;32;20011;-34
2021/01/15 10:43:42;;;;;;;;;;;3.50;98.70;;;;;;4421938;32;19999;-34
2021/01/15 10:46:10;;;;;;;;;;;3.50;98.70;;;;;;4422576;32;20004;-35
2021/01/15 10:48:37;;;;;;;;;;;3.50;98.70;;;;;;4422569;32;20430;-35
2021/01/15 10:51:07;;;;;;;;;;;3.50;98.60;;;;;;4422417;32;20475;-34
2021/01/15 10:53:33;;;;;;;;;;;3.50;98.70;;;;;;4422299;32;20008;-34
2021/01/15 10:56:00;;;;;;;;;;;3.50;98.70;;;;;;4417849;32;20004;-34
2021/01/15 10:58:27;;;;;;;;;;;3.50;98.70;;;;;;4419273;32;20041;-34
2021/01/15 11:00:53;;;;;;;;;;;3.50;98.70;;;;;;4422215;32;19995;-34
2021/01/15 11:03:21;;;;;;;;;;;3.50;98.70;;;;;;4421292;32;20003;-35
2021/01/15 11:05:47;;;;;;;;;;;3.50;98.70;;;;;;4421664;32;20377;-34
2021/01/15 11:08:14;;;;;;;;;;;3.50;98.70;;;;;;4421462;32;20384;-34
2021/01/15 11:10:40;;;;;;;;;;;3.50;98.70;;;;;;4421975;32;20412;-34
2021/01/15 11:13:07;;;;;;;;;;;3.50;98.70;;;;;;4421670;32;20465;-34
2021/01/15 11:15:34;;;;;;;;;;;3.50;98.70;;;;;;4422111;32;20400;-34
2021/01/15 11:18:01;;;;;;;;;;;3.50;98.70;;;;;;4421049;32;20052;-34
2021/01/15 11:20:28;;;;;;;;;;;3.50;98.80;;;;;;4421825;32;20016;-34
2021/01/15 11:22:55;;;;;;;;;;;3.50;98.80;;;;;;4422068;32;20022;-34
2021/01/15 11:25:21;;;;;;;;;;;3.50;98.70;;;;;;4421704;32;20004;-34
2021/01/15 11:27:48;;;;;;;;;;;3.50;98.70;;;;;;4421623;32;19995;-34
2021/01/15 11:30:15;;;;;;;;;;;3.50;98.70;;;;;;4420659;32;20007;-35
2021/01/15 11:32:42;;;;;;;;;;;3.50;98.70;;;;;;4421524;32;20360;-40
2021/01/15 11:35:09;;;;;;;;;;;3.50;98.70;;;;;;4421290;32;20095;-35
2021/01/15 11:37:36;;;;;;;;;;;3.50;98.70;;;;;;4421495;32;20004;-34
2021/01/15 11:40:06;;;;;;;;;;;3.50;98.80;;;;;;4408014;32;20000;-35
2021/01/15 11:42:34;;;;;;;;;;;3.50;98.70;;;;;;4420019;32;20008;-34
2021/01/15 11:45:00;;;;;;;;;;;3.50;98.70;;;;;;4421603;32;20019;-34
2021/01/15 11:47:27;;;;;;;;;;;3.50;98.70;;;;;;4421830;32;20004;-34
2021/01/15 11:49:54;;;;;;;;;;;3.50;98.70;;;;;;4421341;32;20363;-34
2021/01/15 11:52:21;;;;;;;;;;;3.50;98.70;;;;;;4421879;32;20007;-34
2021/01/15 11:54:48;;;;;;;;;;;3.50;98.70;;;;;;4421090;32;20017;-34
2021/01/15 11:57:14;;;;;;;;;;;3.50;98.70;;;;;;4421693;32;20068;-34
2021/01/15 11:59:41;;;;;;;;;;;3.50;98.70;;;;;;4420089;32;20007;-38
2021/01/15 12:02:08;;;;;;;;;;;3.50;98.80;;;;;;4419887;32;20050;-35
2021/01/15 12:04:34;;;;;;;;;;;3.50;98.80;;;;;;4421066;32;20003;-34
2021/01/15 12:07:02;;;;;;;;;;;3.50;98.80;;;;;;4421639;32;20396;-34
2021/01/15 12:09:28;;;;;;;;;;;3.50;98.80;;;;;;4420979;32;20081;-35
2021/01/15 12:11:56;;;;;;;;;;;3.50;98.70;;;;;;4432685;32;20127;-37
2021/01/15 12:14:23;;;;;;;;;;;3.50;98.80;;;;;;4421582;32;20014;-35
2021/01/15 12:16:50;;;;;;;;;;;3.50;99.10;;;;;;4421515;32;20065;-34
2021/01/15 12:19:17;;;;;;;;;;;3.50;99.10;;;;;;4421356;32;20012;-34
2021/01/15 12:21:46;;;;;;;;;;;3.50;98.80;;;;;;4420249;32;20045;-34
2021/01/15 12:24:13;;;;;;;;;;;3.50;98.80;;;;;;4421297;32;20003;-34
2021/01/15 12:26:40;;;;;;;;;;;3.50;98.80;;;;;;4421416;32;20018;-32
2021/01/15 12:29:08;;;;;;;;;;;3.50;98.80;;;;;;4421470;32;20392;-33
2021/01/15 12:31:36;;;;;;;;;;;3.50;98.70;;;;;;4407617;32;20438;-33
2021/01/15 12:34:04;;;;;;;;;;;3.50;99.10;;;;;;4421440;32;19999;-32
2021/01/15 12:36:30;;;;;;;;;;;3.50;98.70;;;;;;4420595;32;20004;-32
2021/01/15 12:38:57;;;;;;;;;;;3.50;98.70;;;;;;4421091;32;20009;-32
2021/01/15 12:41:25;;;;;;;;;;;3.50;98.80;;;;;;4421159;32;20438;-32
2021/01/15 12:43:52;;;;;;;;;;;3.50;98.80;;;;;;4420670;32;20003;-32
2021/01/15 12:46:19;;;;;;;;;;;3.50;98.80;;;;;;4421226;32;20075;-32
2021/01/15 12:48:46;;;;;;;;;;;3.50;98.80;;;;;;4420131;32;20003;-32
2021/01/15 12:51:13;;;;;;;;;;;3.50;98.80;;;;;;4419697;32;20457;-32
2021/01/15 12:53:40;;;;;;;;;;;3.50;98.80;;;;;;4420914;32;20434;-32
2021/01/15 12:56:07;;;;;;;;;;;3.50;98.80;;;;;;4422772;32;20015;-33
2021/01/15 12:58:34;;;;;;;;;;;3.50;98.80;;;;;;4423105;32;20059;-32
2021/01/15 13:01:00;;;;;;;;;;;3.50;98.80;;;;;;4422585;32;20003;-32
2021/01/15 13:03:27;;;;;;;;;;;3.50;98.80;;;;;;4423468;32;20025;-32
2021/01/15 13:05:53;;;;;;;;;;;3.50;98.80;;;;;;4423578;32;20369;-32
2021/01/15 13:08:20;;;;;;;;;;;3.50;98.80;;;;;;4433819;32;19999;-32
2021/01/15 13:10:47;;;;;;;;;;;3.50;98.80;;;;;;4423974;32;20021;-32
2021/01/15 13:13:14;;;;;;;;;;;3.50;98.80;;;;;;4423249;32;20051;-33
2021/01/15 13:15:41;;;;;;;;;;;3.50;98.70;;;;;;4423517;32;19999;-33
2021/01/15 13:18:07;;;;;;;;;;;3.50;98.80;;;;;;4423566;32;20011;-38
2021/01/15 13:20:34;;;;;;;;;;;3.50;98.80;;;;;;4423512;32;20014;-33
2021/01/15 13:23:02;;;;;;;;;;;3.50;98.80;;;;;;4423548;32;20007;-33
2021/01/15 13:25:29;;;;;;;;;;;3.50;98.80;;;;;;4423756;32;20004;-33
2021/01/15 13:28:00;;;;;;;;;;;3.50;98.80;;;;;;4423437;32;20028;-33
2021/01/15 13:30:28;;;;;;;;;;;3.50;98.80;;;;;;4423858;32;20779;-33
2021/01/15 13:33:12;;;;;;;;;;;3.50;98.80;;;;;;4423722;32;20016;-33
2021/01/15 13:35:39;;;;;;;;;;;3.50;98.80;;;;;;4422548;32;20003;-33
2021/01/15 13:38:09;;;;;;;;;;;3.50;98.80;;;;;;4423346;32;20007;-36
2021/01/15 13:40:36;;;;;;;;;;;3.50;98.80;;;;;;4409986;32;20037;-33
2021/01/15 13:43:03;;;;;;;;;;;3.50;98.90;;;;;;4423890;32;20003;-33
2021/01/15 13:45:29;;;;;;;;;;;3.50;98.80;;;;;;4423596;32;20076;-33
2021/01/15 13:47:56;;;;;;;;;;;3.50;98.80;;;;;;4423487;32;20007;-33
2021/01/15 13:50:25;;;;;;;;;;;3.50;98.80;;;;;;4423551;32;20385;-33
2021/01/15 13:52:53;;;;;;;;;;;3.50;98.80;;;;;;4423031;32;20442;-33
2021/01/15 13:55:26;;;;;;;;;;;3.50;98.80;;;;;;4423591;32;19999;-33
2021/01/15 13:57:52;;;;;;;;;;;3.50;98.80;;;;;;4423534;32;20078;-33
2021/01/15 14:00:19;;;;;;;;;;;3.50;98.90;;;;;;4423206;32;20010;-33
2021/01/15 14:02:46;;;;;;;;;;;3.50;98.80;;;;;;4423142;32;19995;-33
2021/01/15 14:05:13;;;;;;;;;;;3.50;98.80;;;;;;4422604;32;20017;-33
2021/01/15 14:07:40;;;;;;;;;;;3.50;98.80;;;;;;4422803;32;20082;-33
2021/01/15 14:10:08;;;;;;;;;;;3.50;98.80;;;;;;4422949;32;20400;-33
2021/01/15 14:12:35;;;;;;;;;;;3.50;98.80;;;;;;4421507;32;20408;-33
2021/01/15 14:15:01;;;;;;;;;;;3.50;98.80;;;;;;4423109;32;20051;-33
2021/01/15 14:17:28;;;;;;;;;;;3.50;98.80;;;;;;4422584;32;20012;-33
2021/01/15 14:19:56;;;;;;;;;;;3.50;98.70;;;;;;4421834;32;19996;-33
2021/01/15 14:22:22;;;;;;;;;;;3.50;98.70;;;;;;4422884;32;20011;-33
2021/01/15 14:24:49;;;;;;;;;;;3.50;98.70;;;;;;4422627;32;20023;-33
2021/01/15 14:27:16;;;;;;;;;;;3.50;98.80;;;;;;4421383;32;20034;-33
2021/01/15 14:29:43;;;;;;;;;;;3.50;98.80;;;;;;4421328;32;20040;-33
2021/01/15 14:32:10;;;;;;;;;;;3.50;98.70;;;;;;4434503;32;20453;-33
2021/01/15 14:34:37;;;;;;;;;;;3.50;98.80;;;;;;4422900;32;20009;-33
2021/01/15 14:37:04;;;;;;;;;;;3.50;98.80;;;;;;4422962;32;20009;-33
2021/01/15 14:39:32;;;;;;;;;;;3.50;98.80;;;;;;4434062;32;20049;-33
2021/01/15 14:41:59;;;;;;;;;;;3.50;98.80;;;;;;4422637;32;20010;-33